sensor_id;sensor_type;location;lat;lon;timestamp;temperature;humidity
19363;DHT22;9817;50.80926400;5.16316200;2023-04-24T00:01:42;10.70;99.90
19363;DHT22;9817;50.80926400;5.16316200;2023-04-24T00:04:08;10.70;99.90
19363;DHT22;9817;50.80926400;5.16316200;2023-04-24T00:06:37;10.60;99.90
19363;DHT22;9817;50.80926400;5.16316200;2023-04-24T00:09:03;10.70;99.90
19363;DHT22;9817;50.80926400;5.16316200;2023-04-24T00:11:29;10.70;99.90
19363;DHT22;9817;50.80926400;5.16316200;2023-04-24T00:13:56;10.70;99.90
19363;DHT22;9817;50.80926400;5.16316200;2023-04-24T00:16:22;10.50;99.90
19363;DHT22;9817;50.80926400;5.16316200;2023-04-24T00:18:48;10.70;99.90
19363;DHT22;9817;50.80926400;5.16316200;2023-04-24T00:21:14;10.60;99.90
19363;DHT22;9817;50.80926400;5.16316200;2023-04-24T00:23:41;10.50;99.90
19363;DHT22;9817;50.80926400;5.16316200;2023-04-24T00:26:07;10.60;99.90
19363;DHT22;9817;50.80926400;5.16316200;2023-04-24T00:28:32;10.70;99.90
19363;DHT22;9817;50.80926400;5.16316200;2023-04-24T00:30:58;10.70;99.90
19363;DHT22;9817;50.80926400;5.16316200;2023-04-24T00:33:23;10.70;99.90
19363;DHT22;9817;50.80926400;5.16316200;2023-04-24T00:35:49;10.70;99.90
19363;DHT22;9817;50.80926400;5.16316200;2023-04-24T00:38:15;10.60;99.90
19363;DHT22;9817;50.80926400;5.16316200;2023-04-24T00:40:40;10.70;99.90
19363;DHT22;9817;50.80926400;5.16316200;2023-04-24T00:43:06;10.70;99.90
19363;DHT22;9817;50.80926400;5.16316200;2023-04-24T00:45:32;10.70;99.90
19363;DHT22;9817;50.80926400;5.16316200;2023-04-24T00:47:58;10.60;99.90
19363;DHT22;9817;50.80926400;5.16316200;2023-04-24T00:50:25;10.60;99.90
19363;DHT22;9817;50.80926400;5.16316200;2023-04-24T00:52:50;10.70;99.90
19363;DHT22;9817;50.80926400;5.16316200;2023-04-24T00:55:17;10.60;99.90
19363;DHT22;9817;50.80926400;5.16316200;2023-04-24T00:57:43;10.60;99.90
19363;DHT22;9817;50.80926400;5.16316200;2023-04-24T01:00:10;10.50;99.90
19363;DHT22;9817;50.80926400;5.16316200;2023-04-24T01:02:37;10.60;99.90
19363;DHT22;9817;50.80926400;5.16316200;2023-04-24T01:05:09;10.70;99.90
19363;DHT22;9817;50.80926400;5.16316200;2023-04-24T01:07:34;10.70;99.90
19363;DHT22;9817;50.80926400;5.16316200;2023-04-24T01:10:01;10.60;99.90
19363;DHT22;9817;50.80926400;5.16316200;2023-04-24T01:12:26;10.60;99.90
19363;DHT22;9817;50.80926400;5.16316200;2023-04-24T01:14:52;10.40;99.90
19363;DHT22;9817;50.80926400;5.16316200;2023-04-24T01:17:18;10.30;99.90
19363;DHT22;9817;50.80926400;5.16316200;2023-04-24T01:19:43;10.50;99.90
19363;DHT22;9817;50.80926400;5.16316200;2023-04-24T01:22:16;10.60;99.90
19363;DHT22;9817;50.80926400;5.16316200;2023-04-24T01:24:43;10.70;99.90
19363;DHT22;9817;50.80926400;5.16316200;2023-04-24T01:27:10;10.60;99.90
19363;DHT22;9817;50.80926400;5.16316200;2023-04-24T01:29:36;10.60;99.90
19363;DHT22;9817;50.80926400;5.16316200;2023-04-24T01:32:03;10.60;99.90
19363;DHT22;9817;50.80926400;5.16316200;2023-04-24T01:34:29;10.60;99.90
19363;DHT22;9817;50.80926400;5.16316200;2023-04-24T01:36:55;10.70;99.90
19363;DHT22;9817;50.80926400;5.16316200;2023-04-24T01:39:22;10.70;99.90
19363;DHT22;9817;50.80926400;5.16316200;2023-04-24T01:41:51;10.50;99.90
19363;DHT22;9817;50.80926400;5.16316200;2023-04-24T01:44:18;10.60;99.90
19363;DHT22;9817;50.80926400;5.16316200;2023-04-24T01:46:44;10.60;99.90
19363;DHT22;9817;50.80926400;5.16316200;2023-04-24T01:49:10;10.50;99.90
19363;DHT22;9817;50.80926400;5.16316200;2023-04-24T01:51:36;10.50;99.90
19363;DHT22;9817;50.80926400;5.16316200;2023-04-24T01:54:02;10.60;99.90
19363;DHT22;9817;50.80926400;5.16316200;2023-04-24T01:56:33;10.50;99.90
19363;DHT22;9817;50.80926400;5.16316200;2023-04-24T01:59:00;10.50;99.90
19363;DHT22;9817;50.80926400;5.16316200;2023-04-24T02:01:26;10.40;99.90
19363;DHT22;9817;50.80926400;5.16316200;2023-04-24T02:03:51;10.50;99.90
19363;DHT22;9817;50.80926400;5.16316200;2023-04-24T02:06:17;10.60;99.90
19363;DHT22;9817;50.80926400;5.16316200;2023-04-24T02:08:43;10.60;99.90
19363;DHT22;9817;50.80926400;5.16316200;2023-04-24T02:11:10;10.60;99.90
19363;DHT22;9817;50.80926400;5.16316200;2023-04-24T02:13:35;10.50;99.90
19363;DHT22;9817;50.80926400;5.16316200;2023-04-24T02:16:01;10.50;99.90
19363;DHT22;9817;50.80926400;5.16316200;2023-04-24T02:18:27;10.40;99.90
19363;DHT22;9817;50.80926400;5.16316200;2023-04-24T02:20:52;10.20;99.90
19363;DHT22;9817;50.80926400;5.16316200;2023-04-24T02:23:18;10.10;99.90
19363;DHT22;9817;50.80926400;5.16316200;2023-04-24T02:25:44;10.30;99.90
19363;DHT22;9817;50.80926400;5.16316200;2023-04-24T02:28:09;10.30;99.90
19363;DHT22;9817;50.80926400;5.16316200;2023-04-24T02:30:35;10.30;99.90
19363;DHT22;9817;50.80926400;5.16316200;2023-04-24T02:33:00;10.30;99.90
19363;DHT22;9817;50.80926400;5.16316200;2023-04-24T02:35:26;10.20;99.90
19363;DHT22;9817;50.80926400;5.16316200;2023-04-24T02:37:52;10.20;99.90
19363;DHT22;9817;50.80926400;5.16316200;2023-04-24T02:40:17;10.10;99.90
19363;DHT22;9817;50.80926400;5.16316200;2023-04-24T02:42:43;10.10;99.90
19363;DHT22;9817;50.80926400;5.16316200;2023-04-24T02:45:09;9.90;99.90
19363;DHT22;9817;50.80926400;5.16316200;2023-04-24T02:47:35;9.90;99.90
19363;DHT22;9817;50.80926400;5.16316200;2023-04-24T02:50:02;9.90;99.90
19363;DHT22;9817;50.80926400;5.16316200;2023-04-24T02:52:28;10.00;99.90
19363;DHT22;9817;50.80926400;5.16316200;2023-04-24T02:54:54;10.00;99.90
19363;DHT22;9817;50.80926400;5.16316200;2023-04-24T02:57:19;9.90;99.90
19363;DHT22;9817;50.80926400;5.16316200;2023-04-24T02:59:45;9.90;99.90
19363;DHT22;9817;50.80926400;5.16316200;2023-04-24T03:02:10;10.00;99.90
19363;DHT22;9817;50.80926400;5.16316200;2023-04-24T03:04:36;10.10;99.90
19363;DHT22;9817;50.80926400;5.16316200;2023-04-24T03:07:02;10.00;99.90
19363;DHT22;9817;50.80926400;5.16316200;2023-04-24T03:09:27;9.90;99.90
19363;DHT22;9817;50.80926400;5.16316200;2023-04-24T03:11:53;9.90;99.90
19363;DHT22;9817;50.80926400;5.16316200;2023-04-24T03:14:19;9.90;99.90
19363;DHT22;9817;50.80926400;5.16316200;2023-04-24T03:16:45;9.90;99.90
19363;DHT22;9817;50.80926400;5.16316200;2023-04-24T03:19:10;9.90;99.90
19363;DHT22;9817;50.80926400;5.16316200;2023-04-24T03:21:36;9.90;99.90
19363;DHT22;9817;50.80926400;5.16316200;2023-04-24T03:24:09;9.90;99.90
19363;DHT22;9817;50.80926400;5.16316200;2023-04-24T03:26:35;9.90;99.90
19363;DHT22;9817;50.80926400;5.16316200;2023-04-24T03:29:01;9.90;99.90
19363;DHT22;9817;50.80926400;5.16316200;2023-04-24T03:31:26;9.70;99.90
19363;DHT22;9817;50.80926400;5.16316200;2023-04-24T03:33:52;9.70;99.90
19363;DHT22;9817;50.80926400;5.16316200;2023-04-24T03:36:18;9.70;99.90
19363;DHT22;9817;50.80926400;5.16316200;2023-04-24T03:38:44;9.70;99.90
19363;DHT22;9817;50.80926400;5.16316200;2023-04-24T03:41:10;9.90;99.90
19363;DHT22;9817;50.80926400;5.16316200;2023-04-24T03:43:37;9.80;99.90
19363;DHT22;9817;50.80926400;5.16316200;2023-04-24T03:46:02;9.90;99.90
19363;DHT22;9817;50.80926400;5.16316200;2023-04-24T03:48:28;9.80;99.90
19363;DHT22;9817;50.80926400;5.16316200;2023-04-24T03:50:54;9.70;99.90
19363;DHT22;9817;50.80926400;5.16316200;2023-04-24T03:53:19;9.80;99.90
19363;DHT22;9817;50.80926400;5.16316200;2023-04-24T03:55:46;9.90;99.90
19363;DHT22;9817;50.80926400;5.16316200;2023-04-24T03:58:11;9.70;99.90
19363;DHT22;9817;50.80926400;5.16316200;2023-04-24T04:00:38;9.70;99.90
19363;DHT22;9817;50.80926400;5.16316200;2023-04-24T04:03:05;9.60;99.90
19363;DHT22;9817;50.80926400;5.16316200;2023-04-24T04:05:31;9.80;99.90
19363;DHT22;9817;50.80926400;5.16316200;2023-04-24T04:07:57;9.80;99.90
19363;DHT22;9817;50.80926400;5.16316200;2023-04-24T04:10:23;9.80;99.90
19363;DHT22;9817;50.80926400;5.16316200;2023-04-24T04:12:48;9.60;99.90
19363;DHT22;9817;50.80926400;5.16316200;2023-04-24T04:15:14;9.60;99.90
19363;DHT22;9817;50.80926400;5.16316200;2023-04-24T04:17:40;9.70;99.90
19363;DHT22;9817;50.80926400;5.16316200;2023-04-24T04:20:06;9.70;99.90
19363;DHT22;9817;50.80926400;5.16316200;2023-04-24T04:22:36;9.70;99.90
19363;DHT22;9817;50.80926400;5.16316200;2023-04-24T04:25:03;9.60;99.90
19363;DHT22;9817;50.80926400;5.16316200;2023-04-24T04:27:28;9.60;99.90
19363;DHT22;9817;50.80926400;5.16316200;2023-04-24T04:30:00;9.60;99.90
19363;DHT22;9817;50.80926400;5.16316200;2023-04-24T04:32:34;9.60;99.90
19363;DHT22;9817;50.80926400;5.16316200;2023-04-24T04:35:00;9.50;99.90
19363;DHT22;9817;50.80926400;5.16316200;2023-04-24T04:37:32;9.40;99.90
19363;DHT22;9817;50.80926400;5.16316200;2023-04-24T04:39:59;9.50;99.90
19363;DHT22;9817;50.80926400;5.16316200;2023-04-24T04:42:26;9.50;99.90
19363;DHT22;9817;50.80926400;5.16316200;2023-04-24T04:44:52;9.50;99.90
19363;DHT22;9817;50.80926400;5.16316200;2023-04-24T04:47:20;9.40;99.90
19363;DHT22;9817;50.80926400;5.16316200;2023-04-24T04:49:48;9.40;99.90
19363;DHT22;9817;50.80926400;5.16316200;2023-04-24T04:52:14;9.40;99.90
19363;DHT22;9817;50.80926400;5.16316200;2023-04-24T04:54:40;9.30;99.90
19363;DHT22;9817;50.80926400;5.16316200;2023-04-24T04:57:06;9.30;99.90
19363;DHT22;9817;50.80926400;5.16316200;2023-04-24T04:59:31;9.30;99.90
19363;DHT22;9817;50.80926400;5.16316200;2023-04-24T05:01:57;9.40;99.90
19363;DHT22;9817;50.80926400;5.16316200;2023-04-24T05:04:23;9.60;99.90
19363;DHT22;9817;50.80926400;5.16316200;2023-04-24T05:06:48;9.50;99.90
19363;DHT22;9817;50.80926400;5.16316200;2023-04-24T05:09:16;9.50;99.90
19363;DHT22;9817;50.80926400;5.16316200;2023-04-24T05:11:42;9.40;99.90
19363;DHT22;9817;50.80926400;5.16316200;2023-04-24T05:14:07;9.40;99.90
19363;DHT22;9817;50.80926400;5.16316200;2023-04-24T05:16:33;9.40;99.90
19363;DHT22;9817;50.80926400;5.16316200;2023-04-24T05:18:59;9.60;99.90
19363;DHT22;9817;50.80926400;5.16316200;2023-04-24T05:21:24;9.70;99.90
19363;DHT22;9817;50.80926400;5.16316200;2023-04-24T05:23:50;9.70;99.90
19363;DHT22;9817;50.80926400;5.16316200;2023-04-24T05:26:16;9.70;99.90
19363;DHT22;9817;50.80926400;5.16316200;2023-04-24T05:28:43;9.70;99.90
19363;DHT22;9817;50.80926400;5.16316200;2023-04-24T05:31:08;9.60;99.90
19363;DHT22;9817;50.80926400;5.16316200;2023-04-24T05:33:34;9.60;99.90
19363;DHT22;9817;50.80926400;5.16316200;2023-04-24T05:36:00;9.60;99.90
19363;DHT22;9817;50.80926400;5.16316200;2023-04-24T05:38:25;9.60;99.90
19363;DHT22;9817;50.80926400;5.16316200;2023-04-24T05:40:51;9.70;99.90
19363;DHT22;9817;50.80926400;5.16316200;2023-04-24T05:43:17;9.70;99.90
19363;DHT22;9817;50.80926400;5.16316200;2023-04-24T05:45:42;9.70;99.90
19363;DHT22;9817;50.80926400;5.16316200;2023-04-24T05:48:08;9.80;99.90
19363;DHT22;9817;50.80926400;5.16316200;2023-04-24T05:50:34;9.80;99.90
19363;DHT22;9817;50.80926400;5.16316200;2023-04-24T05:52:59;9.80;99.90
19363;DHT22;9817;50.80926400;5.16316200;2023-04-24T05:55:27;9.90;99.90
19363;DHT22;9817;50.80926400;5.16316200;2023-04-24T05:57:53;9.80;99.90
19363;DHT22;9817;50.80926400;5.16316200;2023-04-24T06:00:19;9.80;99.90
19363;DHT22;9817;50.80926400;5.16316200;2023-04-24T06:02:45;9.90;99.90
19363;DHT22;9817;50.80926400;5.16316200;2023-04-24T06:05:11;9.80;99.90
19363;DHT22;9817;50.80926400;5.16316200;2023-04-24T06:07:37;9.90;99.90
19363;DHT22;9817;50.80926400;5.16316200;2023-04-24T06:10:03;9.80;99.90
19363;DHT22;9817;50.80926400;5.16316200;2023-04-24T06:12:29;9.70;99.90
19363;DHT22;9817;50.80926400;5.16316200;2023-04-24T06:14:55;9.80;99.90
19363;DHT22;9817;50.80926400;5.16316200;2023-04-24T06:17:23;9.70;99.90
19363;DHT22;9817;50.80926400;5.16316200;2023-04-24T06:19:49;9.80;99.90
19363;DHT22;9817;50.80926400;5.16316200;2023-04-24T06:22:14;9.70;99.90
19363;DHT22;9817;50.80926400;5.16316200;2023-04-24T06:24:40;9.70;99.90
19363;DHT22;9817;50.80926400;5.16316200;2023-04-24T06:27:06;9.60;99.90
19363;DHT22;9817;50.80926400;5.16316200;2023-04-24T06:29:33;9.70;99.90
19363;DHT22;9817;50.80926400;5.16316200;2023-04-24T06:31:59;9.70;99.90
19363;DHT22;9817;50.80926400;5.16316200;2023-04-24T06:34:24;9.60;99.90
19363;DHT22;9817;50.80926400;5.16316200;2023-04-24T06:36:50;9.60;99.90
19363;DHT22;9817;50.80926400;5.16316200;2023-04-24T06:39:16;9.60;99.90
19363;DHT22;9817;50.80926400;5.16316200;2023-04-24T06:41:41;9.70;99.90
19363;DHT22;9817;50.80926400;5.16316200;2023-04-24T06:44:07;9.80;99.90
19363;DHT22;9817;50.80926400;5.16316200;2023-04-24T06:46:33;9.80;99.90
19363;DHT22;9817;50.80926400;5.16316200;2023-04-24T06:48:59;9.90;99.90
19363;DHT22;9817;50.80926400;5.16316200;2023-04-24T06:51:26;10.10;99.90
19363;DHT22;9817;50.80926400;5.16316200;2023-04-24T06:53:53;10.00;99.90
19363;DHT22;9817;50.80926400;5.16316200;2023-04-24T06:56:19;9.90;99.90
19363;DHT22;9817;50.80926400;5.16316200;2023-04-24T06:58:46;9.90;99.90
19363;DHT22;9817;50.80926400;5.16316200;2023-04-24T07:01:11;9.80;99.90
19363;DHT22;9817;50.80926400;5.16316200;2023-04-24T07:03:37;9.70;99.90
19363;DHT22;9817;50.80926400;5.16316200;2023-04-24T07:06:03;9.60;99.90
19363;DHT22;9817;50.80926400;5.16316200;2023-04-24T07:08:29;9.70;99.90
19363;DHT22;9817;50.80926400;5.16316200;2023-04-24T07:10:59;9.70;99.90
19363;DHT22;9817;50.80926400;5.16316200;2023-04-24T07:13:25;9.80;99.90
19363;DHT22;9817;50.80926400;5.16316200;2023-04-24T07:15:51;9.90;99.90
19363;DHT22;9817;50.80926400;5.16316200;2023-04-24T07:18:20;10.10;99.90
19363;DHT22;9817;50.80926400;5.16316200;2023-04-24T07:20:45;10.00;99.90
19363;DHT22;9817;50.80926400;5.16316200;2023-04-24T07:23:11;9.90;99.90
19363;DHT22;9817;50.80926400;5.16316200;2023-04-24T07:25:37;9.80;99.90
19363;DHT22;9817;50.80926400;5.16316200;2023-04-24T07:28:04;9.90;99.90
19363;DHT22;9817;50.80926400;5.16316200;2023-04-24T07:30:30;9.80;99.90
19363;DHT22;9817;50.80926400;5.16316200;2023-04-24T07:32:58;9.90;99.90
19363;DHT22;9817;50.80926400;5.16316200;2023-04-24T07:35:24;10.10;99.90
19363;DHT22;9817;50.80926400;5.16316200;2023-04-24T07:37:51;9.90;99.90
19363;DHT22;9817;50.80926400;5.16316200;2023-04-24T07:40:18;10.00;99.90
19363;DHT22;9817;50.80926400;5.16316200;2023-04-24T07:42:44;10.10;99.90
19363;DHT22;9817;50.80926400;5.16316200;2023-04-24T07:45:09;10.10;99.90
19363;DHT22;9817;50.80926400;5.16316200;2023-04-24T07:47:35;10.10;99.90
19363;DHT22;9817;50.80926400;5.16316200;2023-04-24T07:50:03;10.20;99.90
19363;DHT22;9817;50.80926400;5.16316200;2023-04-24T07:52:28;10.30;99.90
19363;DHT22;9817;50.80926400;5.16316200;2023-04-24T07:54:55;10.30;99.90
19363;DHT22;9817;50.80926400;5.16316200;2023-04-24T07:57:24;10.20;99.90
19363;DHT22;9817;50.80926400;5.16316200;2023-04-24T07:59:50;10.20;99.90
19363;DHT22;9817;50.80926400;5.16316200;2023-04-24T08:02:16;10.20;99.90
19363;DHT22;9817;50.80926400;5.16316200;2023-04-24T08:04:42;10.30;99.90
19363;DHT22;9817;50.80926400;5.16316200;2023-04-24T08:07:08;10.20;99.90
19363;DHT22;9817;50.80926400;5.16316200;2023-04-24T08:09:33;10.40;99.90
19363;DHT22;9817;50.80926400;5.16316200;2023-04-24T08:11:59;10.50;99.90
19363;DHT22;9817;50.80926400;5.16316200;2023-04-24T08:14:25;10.60;99.90
19363;DHT22;9817;50.80926400;5.16316200;2023-04-24T08:16:53;10.60;99.90
19363;DHT22;9817;50.80926400;5.16316200;2023-04-24T08:19:20;10.50;99.90
19363;DHT22;9817;50.80926400;5.16316200;2023-04-24T08:21:46;10.40;99.90
19363;DHT22;9817;50.80926400;5.16316200;2023-04-24T08:24:11;10.40;99.90
19363;DHT22;9817;50.80926400;5.16316200;2023-04-24T08:26:37;10.40;99.90
19363;DHT22;9817;50.80926400;5.16316200;2023-04-24T08:29:03;10.50;99.90
19363;DHT22;9817;50.80926400;5.16316200;2023-04-24T08:31:28;10.40;99.90
19363;DHT22;9817;50.80926400;5.16316200;2023-04-24T08:33:54;10.20;99.90
19363;DHT22;9817;50.80926400;5.16316200;2023-04-24T08:36:20;10.00;99.90
19363;DHT22;9817;50.80926400;5.16316200;2023-04-24T08:38:45;10.00;99.90
19363;DHT22;9817;50.80926400;5.16316200;2023-04-24T08:41:14;10.00;99.90
19363;DHT22;9817;50.80926400;5.16316200;2023-04-24T08:43:41;9.80;99.90
19363;DHT22;9817;50.80926400;5.16316200;2023-04-24T08:46:07;10.00;99.90
19363;DHT22;9817;50.80926400;5.16316200;2023-04-24T08:48:34;9.90;99.90
19363;DHT22;9817;50.80926400;5.16316200;2023-04-24T08:51:00;10.10;99.90
19363;DHT22;9817;50.80926400;5.16316200;2023-04-24T08:53:27;10.20;99.90
19363;DHT22;9817;50.80926400;5.16316200;2023-04-24T08:55:55;10.60;99.90
19363;DHT22;9817;50.80926400;5.16316200;2023-04-24T08:58:24;10.80;99.90
19363;DHT22;9817;50.80926400;5.16316200;2023-04-24T09:00:50;11.10;99.90
19363;DHT22;9817;50.80926400;5.16316200;2023-04-24T09:03:16;11.30;99.90
19363;DHT22;9817;50.80926400;5.16316200;2023-04-24T09:05:47;11.50;99.90
19363;DHT22;9817;50.80926400;5.16316200;2023-04-24T09:08:14;11.40;99.90
19363;DHT22;9817;50.80926400;5.16316200;2023-04-24T09:10:40;11.30;99.90
19363;DHT22;9817;50.80926400;5.16316200;2023-04-24T09:13:06;11.10;99.90
19363;DHT22;9817;50.80926400;5.16316200;2023-04-24T09:15:34;11.20;99.90
19363;DHT22;9817;50.80926400;5.16316200;2023-04-24T09:18:00;11.20;99.90
19363;DHT22;9817;50.80926400;5.16316200;2023-04-24T09:20:26;11.40;99.90
19363;DHT22;9817;50.80926400;5.16316200;2023-04-24T09:22:57;11.50;99.90
19363;DHT22;9817;50.80926400;5.16316200;2023-04-24T09:25:34;11.40;99.90
19363;DHT22;9817;50.80926400;5.16316200;2023-04-24T09:28:05;11.50;99.90
19363;DHT22;9817;50.80926400;5.16316200;2023-04-24T09:30:32;11.70;99.90
19363;DHT22;9817;50.80926400;5.16316200;2023-04-24T09:33:12;12.40;99.90
19363;DHT22;9817;50.80926400;5.16316200;2023-04-24T09:35:41;13.20;99.90
19363;DHT22;9817;50.80926400;5.16316200;2023-04-24T09:38:07;13.50;99.90
19363;DHT22;9817;50.80926400;5.16316200;2023-04-24T09:40:34;14.60;99.90
19363;DHT22;9817;50.80926400;5.16316200;2023-04-24T09:43:00;16.50;99.90
19363;DHT22;9817;50.80926400;5.16316200;2023-04-24T09:45:29;17.60;99.90
19363;DHT22;9817;50.80926400;5.16316200;2023-04-24T09:48:00;17.30;99.90
19363;DHT22;9817;50.80926400;5.16316200;2023-04-24T09:50:26;15.90;99.90
19363;DHT22;9817;50.80926400;5.16316200;2023-04-24T09:53:01;14.90;99.90
19363;DHT22;9817;50.80926400;5.16316200;2023-04-24T09:55:26;14.50;99.90
19363;DHT22;9817;50.80926400;5.16316200;2023-04-24T09:57:58;13.80;99.90
19363;DHT22;9817;50.80926400;5.16316200;2023-04-24T10:00:30;13.40;99.90
19363;DHT22;9817;50.80926400;5.16316200;2023-04-24T10:02:59;13.20;99.90
19363;DHT22;9817;50.80926400;5.16316200;2023-04-24T10:05:28;13.40;99.90
19363;DHT22;9817;50.80926400;5.16316200;2023-04-24T10:08:09;13.50;99.90
19363;DHT22;9817;50.80926400;5.16316200;2023-04-24T10:10:39;13.90;99.90
19363;DHT22;9817;50.80926400;5.16316200;2023-04-24T10:13:05;14.80;99.90
19363;DHT22;9817;50.80926400;5.16316200;2023-04-24T10:15:33;16.00;99.90
19363;DHT22;9817;50.80926400;5.16316200;2023-04-24T10:17:59;16.40;99.90
19363;DHT22;9817;50.80926400;5.16316200;2023-04-24T10:20:27;16.40;99.90
19363;DHT22;9817;50.80926400;5.16316200;2023-04-24T10:22:56;16.10;99.90
19363;DHT22;9817;50.80926400;5.16316200;2023-04-24T10:25:24;15.90;99.90
19363;DHT22;9817;50.80926400;5.16316200;2023-04-24T10:27:52;15.30;99.90
19363;DHT22;9817;50.80926400;5.16316200;2023-04-24T10:30:19;14.70;99.90
19363;DHT22;9817;50.80926400;5.16316200;2023-04-24T10:32:45;14.30;99.90
19363;DHT22;9817;50.80926400;5.16316200;2023-04-24T10:35:15;13.70;99.90
19363;DHT22;9817;50.80926400;5.16316200;2023-04-24T10:37:44;13.30;99.90
19363;DHT22;9817;50.80926400;5.16316200;2023-04-24T10:40:11;13.40;99.90
19363;DHT22;9817;50.80926400;5.16316200;2023-04-24T10:42:41;13.50;99.90
19363;DHT22;9817;50.80926400;5.16316200;2023-04-24T10:45:18;13.60;99.90
19363;DHT22;9817;50.80926400;5.16316200;2023-04-24T10:47:59;13.60;99.90
19363;DHT22;9817;50.80926400;5.16316200;2023-04-24T10:50:28;13.90;99.90
19363;DHT22;9817;50.80926400;5.16316200;2023-04-24T10:53:09;14.10;99.90
19363;DHT22;9817;50.80926400;5.16316200;2023-04-24T10:55:51;14.30;99.90
19363;DHT22;9817;50.80926400;5.16316200;2023-04-24T10:58:37;14.40;99.90
19363;DHT22;9817;50.80926400;5.16316200;2023-04-24T11:01:04;14.60;99.90
19363;DHT22;9817;50.80926400;5.16316200;2023-04-24T11:03:31;14.90;99.90
19363;DHT22;9817;50.80926400;5.16316200;2023-04-24T11:06:04;14.90;99.90
19363;DHT22;9817;50.80926400;5.16316200;2023-04-24T11:08:36;14.80;99.90
19363;DHT22;9817;50.80926400;5.16316200;2023-04-24T11:11:13;14.70;99.90
19363;DHT22;9817;50.80926400;5.16316200;2023-04-24T11:22:03;14.50;99.90
19363;DHT22;9817;50.80926400;5.16316200;2023-04-24T11:35:00;14.50;99.90
19363;DHT22;9817;50.80926400;5.16316200;2023-04-24T11:37:35;14.40;99.90
19363;DHT22;9817;50.80926400;5.16316200;2023-04-24T11:40:02;14.30;99.90
19363;DHT22;9817;50.80926400;5.16316200;2023-04-24T11:42:54;14.40;99.90
19363;DHT22;9817;50.80926400;5.16316200;2023-04-24T11:45:28;14.80;99.90
19363;DHT22;9817;50.80926400;5.16316200;2023-04-24T11:47:55;15.10;99.90
19363;DHT22;9817;50.80926400;5.16316200;2023-04-24T11:50:25;14.40;99.90
19363;DHT22;9817;50.80926400;5.16316200;2023-04-24T11:52:52;14.50;99.90
19363;DHT22;9817;50.80926400;5.16316200;2023-04-24T11:57:49;14.40;99.90
19363;DHT22;9817;50.80926400;5.16316200;2023-04-24T12:00:19;14.50;99.90
19363;DHT22;9817;50.80926400;5.16316200;2023-04-24T12:02:46;14.70;99.90
19363;DHT22;9817;50.80926400;5.16316200;2023-04-24T12:05:25;14.40;99.90
19363;DHT22;9817;50.80926400;5.16316200;2023-04-24T12:07:52;14.30;99.90
19363;DHT22;9817;50.80926400;5.16316200;2023-04-24T12:10:22;14.30;99.90
19363;DHT22;9817;50.80926400;5.16316200;2023-04-24T12:12:49;14.50;99.90
19363;DHT22;9817;50.80926400;5.16316200;2023-04-24T12:15:17;14.70;99.90
19363;DHT22;9817;50.80926400;5.16316200;2023-04-24T12:17:43;14.50;99.90
19363;DHT22;9817;50.80926400;5.16316200;2023-04-24T12:20:09;14.50;99.90
19363;DHT22;9817;50.80926400;5.16316200;2023-04-24T12:23:02;14.50;99.90
19363;DHT22;9817;50.80926400;5.16316200;2023-04-24T12:25:32;14.50;99.90
19363;DHT22;9817;50.80926400;5.16316200;2023-04-24T12:30:34;15.00;99.90
19363;DHT22;9817;50.80926400;5.16316200;2023-04-24T12:33:01;15.00;99.90
19363;DHT22;9817;50.80926400;5.16316200;2023-04-24T12:35:29;15.10;99.90
19363;DHT22;9817;50.80926400;5.16316200;2023-04-24T12:38:07;15.20;99.90
19363;DHT22;9817;50.80926400;5.16316200;2023-04-24T12:40:35;15.70;99.90
19363;DHT22;9817;50.80926400;5.16316200;2023-04-24T12:43:01;15.90;99.90
19363;DHT22;9817;50.80926400;5.16316200;2023-04-24T12:45:27;16.20;99.90
19363;DHT22;9817;50.80926400;5.16316200;2023-04-24T12:47:53;16.30;99.90
19363;DHT22;9817;50.80926400;5.16316200;2023-04-24T12:50:19;16.80;99.90
19363;DHT22;9817;50.80926400;5.16316200;2023-04-24T12:52:45;16.60;99.90
19363;DHT22;9817;50.80926400;5.16316200;2023-04-24T12:55:11;16.60;99.90
19363;DHT22;9817;50.80926400;5.16316200;2023-04-24T12:57:38;16.70;99.90
19363;DHT22;9817;50.80926400;5.16316200;2023-04-24T13:00:06;16.40;99.90
19363;DHT22;9817;50.80926400;5.16316200;2023-04-24T13:02:32;15.90;99.90
19363;DHT22;9817;50.80926400;5.16316200;2023-04-24T13:04:59;15.50;99.90
19363;DHT22;9817;50.80926400;5.16316200;2023-04-24T13:07:26;15.60;99.90
19363;DHT22;9817;50.80926400;5.16316200;2023-04-24T13:09:52;15.40;99.90
19363;DHT22;9817;50.80926400;5.16316200;2023-04-24T13:12:19;15.60;99.90
19363;DHT22;9817;50.80926400;5.16316200;2023-04-24T13:14:45;15.80;99.90
19363;DHT22;9817;50.80926400;5.16316200;2023-04-24T13:17:11;16.10;99.90
19363;DHT22;9817;50.80926400;5.16316200;2023-04-24T13:19:39;16.10;99.90
19363;DHT22;9817;50.80926400;5.16316200;2023-04-24T13:22:06;15.90;99.90
19363;DHT22;9817;50.80926400;5.16316200;2023-04-24T13:24:32;15.90;99.90
19363;DHT22;9817;50.80926400;5.16316200;2023-04-24T13:26:58;16.10;99.90
19363;DHT22;9817;50.80926400;5.16316200;2023-04-24T13:29:24;16.10;99.90
19363;DHT22;9817;50.80926400;5.16316200;2023-04-24T13:31:50;16.40;99.90
19363;DHT22;9817;50.80926400;5.16316200;2023-04-24T13:34:17;16.20;99.90
19363;DHT22;9817;50.80926400;5.16316200;2023-04-24T13:36:43;16.10;99.90
19363;DHT22;9817;50.80926400;5.16316200;2023-04-24T13:39:09;16.00;99.90
19363;DHT22;9817;50.80926400;5.16316200;2023-04-24T13:41:35;15.90;99.90
19363;DHT22;9817;50.80926400;5.16316200;2023-04-24T13:44:02;15.80;99.90
19363;DHT22;9817;50.80926400;5.16316200;2023-04-24T13:46:28;16.00;99.90
19363;DHT22;9817;50.80926400;5.16316200;2023-04-24T13:48:54;16.30;99.90
19363;DHT22;9817;50.80926400;5.16316200;2023-04-24T13:51:19;16.00;99.90
19363;DHT22;9817;50.80926400;5.16316200;2023-04-24T13:53:45;16.20;99.90
19363;DHT22;9817;50.80926400;5.16316200;2023-04-24T13:56:11;16.20;99.90
19363;DHT22;9817;50.80926400;5.16316200;2023-04-24T13:58:38;16.40;99.90
19363;DHT22;9817;50.80926400;5.16316200;2023-04-24T14:01:04;16.40;99.90